Time;durP1;ratioP1;P1;durP2;ratioP2;P2;SDS_P1;SDS_P2;PMS_P1;PMS_P2;Temp;Humidity;BMP_temperature;BMP_pressure;BME280_temperature;BME280_humidity;BME280_pressure;Samples;Min_cycle;Max_cycle;Signal;HPM_P1;HPM_P2
2021/05/17 00:00:11;;;;;;;10.73;4.15;;;;;;;13.04;61.79;98958.34;4911409;28;96920;-86
2021/05/17 00:02:46;;;;;;;8.45;3.67;;;;;;;13.11;61.46;98955.16;4906450;28;96887;-86
2021/05/17 00:05:12;;;;;;;9.45;4.15;;;;;;;12.87;62.59;98951.53;4890164;28;96823;-85
2021/05/17 00:07:38;;;;;;;8.10;3.40;;;;;;;12.80;62.55;98942.31;4906967;28;98984;-85
2021/05/17 00:10:05;;;;;;;5.65;3.28;;;;;;;12.72;62.94;98940.19;4906751;28;96641;-86
2021/05/17 00:12:31;;;;;;;7.40;3.20;;;;;;;12.74;63.36;98937.44;4906717;28;96651;-85
2021/05/17 00:14:57;;;;;;;8.85;3.78;;;;;;;12.83;63.48;98940.34;4907539;28;96885;-83
2021/05/17 00:17:23;;;;;;;6.40;3.22;;;;;;;12.81;63.12;98939.59;4899869;28;99390;-86
2021/05/17 00:19:49;;;;;;;8.13;3.33;;;;;;;12.91;63.06;98935.44;4900913;28;99356;-86
2021/05/17 00:22:14;;;;;;;7.15;3.40;;;;;;;12.74;62.95;98924.28;4916412;28;96559;-87
2021/05/17 00:24:40;;;;;;;5.45;2.92;;;;;;;12.70;63.97;98921.00;4914448;28;96617;-84
2021/05/17 00:27:06;;;;;;;6.68;2.78;;;;;;;12.81;63.19;98922.97;4926571;28;96719;-85
2021/05/17 00:29:32;;;;;;;6.45;3.30;;;;;;;12.77;63.48;98926.72;4911431;28;99406;-85
2021/05/17 00:31:58;;;;;;;10.18;3.25;;;;;;;12.97;62.51;98923.63;4910780;28;96996;-86
2021/05/17 00:34:23;;;;;;;14.65;2.97;;;;;;;12.76;63.49;98917.97;4891204;28;96885;-86
2021/05/17 00:36:49;;;;;;;6.85;2.90;;;;;;;12.83;63.55;98910.53;4891323;28;99679;-84
2021/05/17 00:39:15;;;;;;;9.02;3.50;;;;;;;12.73;63.90;98905.00;4907575;28;98816;-86
2021/05/17 00:41:42;;;;;;;8.07;3.10;;;;;;;12.94;62.90;98912.47;4922128;28;96952;-86
2021/05/17 00:44:08;;;;;;;5.30;3.15;;;;;;;13.02;62.96;98915.44;4890941;28;97197;-83
2021/05/17 00:46:34;;;;;;;9.48;3.33;;;;;;;12.79;63.53;98911.66;4917639;28;99847;-83
2021/05/17 00:49:01;;;;;;;8.25;2.72;;;;;;;12.74;63.83;98924.28;4918179;28;96642;-83
2021/05/17 00:51:27;;;;;;;5.95;2.75;;;;;;;12.81;63.08;98929.06;5124448;23;98753;-85
2021/05/17 00:53:53;;;;;;;5.15;2.50;;;;;;;12.73;63.43;98920.81;4916490;28;96634;-84
2021/05/17 00:56:22;;;;;;;4.78;2.72;;;;;;;12.83;63.06;98929.81;4915773;28;99086;-85
2021/05/17 00:58:49;;;;;;;5.68;2.83;;;;;;;12.87;62.87;98919.91;4934449;28;100038;-84
2021/05/17 01:01:17;;;;;;;5.57;3.00;;;;;;;12.79;63.17;98914.31;4935952;28;95776;-83
2021/05/17 01:03:43;;;;;;;6.50;3.00;;;;;;;12.85;62.94;98920.00;4932241;28;96352;-85
2021/05/17 01:06:32;;;;;;;5.30;2.53;;;;;;;12.83;63.71;98921.09;4928318;28;97906;-86
2021/05/17 01:09:07;;;;;;;5.07;2.47;;;;;;;12.81;64.06;98930.84;4912414;28;99680;-86
2021/05/17 01:11:35;;;;;;;5.00;2.60;;;;;;;12.68;64.51;98921.13;4911748;28;96488;-86
2021/05/17 01:14:04;;;;;;;6.25;2.97;;;;;;;12.65;64.63;98923.97;4943490;28;96857;-86
2021/05/17 01:16:32;;;;;;;6.63;2.85;;;;;;;12.67;65.08;98924.69;4909067;28;100472;-86
2021/05/17 01:18:57;;;;;;;3.83;2.00;;;;;;;12.85;63.27;98922.63;4909135;28;99150;-86
2021/05/17 01:21:26;;;;;;;6.10;2.47;;;;;;;12.77;63.38;98921.44;4940883;28;96340;-86
2021/05/17 01:23:56;;;;;;;6.63;2.47;;;;;;;12.76;64.28;98928.50;4925560;28;97105;-85
2021/05/17 01:26:26;;;;;;;6.93;3.10;;;;;;;12.78;64.39;98931.06;4941041;28;96836;-87
2021/05/17 01:28:53;;;;;;;6.15;2.70;;;;;;;12.91;64.07;98932.81;4923811;28;96652;-86
2021/05/17 01:31:18;;;;;;;6.72;2.47;;;;;;;12.76;64.44;98928.50;4922069;28;96621;-86
2021/05/17 01:33:45;;;;;;;6.40;2.63;;;;;;;12.78;63.94;98926.63;4906768;28;98804;-87
2021/05/17 01:36:14;;;;;;;6.05;2.65;;;;;;;12.95;63.34;98927.34;4922905;28;97284;-83
2021/05/17 01:38:44;;;;;;;8.48;2.90;;;;;;;13.09;62.66;98930.75;4907516;28;100845;-85
2021/05/17 01:41:12;;;;;;;6.10;2.88;;;;;;;13.06;62.84;98936.22;4908751;28;96689;-85
2021/05/17 01:43:44;;;;;;;10.30;2.95;;;;;;;12.94;63.19;98936.16;4927579;28;96871;-86
2021/05/17 01:46:16;;;;;;;4.70;2.40;;;;;;;12.93;63.35;98940.59;4928862;28;99832;-83
2021/05/17 01:48:45;;;;;;;6.28;2.55;;;;;;;12.73;63.36;98938.41;4926865;28;99352;-83
2021/05/17 01:53:59;;;;;;;6.28;2.50;;;;;;;12.63;63.69;98940.78;5480778;22;98385;-82
2021/05/17 03:41:55;;;;;;;6.88;1.17;;;;;;;12.09;67.84;98944.16;5004767;23;100462;-86
2021/05/17 03:44:21;;;;;;;4.90;1.13;;;;;;;12.38;67.84;98955.50;5480307;23;98871;-87
2021/05/17 03:46:46;;;;;;;9.50;1.65;;;;;;;12.29;68.47;98963.97;4905411;28;96566;-87
2021/05/17 03:49:12;;;;;;;3.45;1.23;;;;;;;12.49;67.53;98969.78;4874902;28;99861;-87
2021/05/17 03:51:37;;;;;;;4.20;1.20;;;;;;;12.36;67.51;98975.81;4912529;28;96664;-86
2021/05/17 03:54:03;;;;;;;3.30;1.33;;;;;;;12.53;67.12;98987.91;4905751;28;95839;-85
2021/05/17 03:56:29;;;;;;;4.43;1.33;;;;;;;12.58;67.21;98991.09;5676837;23;98062;-85
2021/05/17 04:23:55;;;;;;;3.45;1.25;;;;;;;13.20;66.14;98987.13;5706198;22;98498;-86
2021/05/17 04:26:20;;;;;;;2.83;1.42;;;;;;;13.22;66.41;98987.88;4878737;28;96571;-88
2021/05/17 04:28:46;;;;;;;6.55;1.20;;;;;;;13.32;65.77;98987.22;4878291;28;96907;-87
2021/05/17 04:31:12;;;;;;;3.75;1.30;;;;;;;13.48;65.53;98996.72;4882126;28;99371;-86
2021/05/17 04:33:37;;;;;;;3.00;0.90;;;;;;;13.82;64.80;98987.38;4898504;28;99377;-85
2021/05/17 04:36:03;;;;;;;1.50;0.68;;;;;;;13.99;63.84;98991.47;4891353;28;96933;-85
2021/05/17 04:38:29;;;;;;;2.58;1.00;;;;;;;13.94;64.27;98993.63;4886271;28;96900;-85
2021/05/17 04:40:54;;;;;;;3.65;0.90;;;;;;;14.27;62.95;99003.59;4881902;28;96900;-90
2021/05/17 04:43:20;;;;;;;2.17;1.10;;;;;;;14.53;62.59;99003.59;4865313;28;99746;-90
2021/05/17 04:45:45;;;;;;;1.77;0.90;;;;;;;14.62;62.28;99006.41;4864674;28;97201;-88
2021/05/17 04:48:11;;;;;;;3.67;1.15;;;;;;;14.65;61.92;99000.09;4882190;28;96617;-90
2021/05/17 04:50:36;;;;;;;2.05;0.85;;;;;;;14.90;61.33;99009.72;4866237;28;101744;-90
2021/05/17 04:53:02;;;;;;;1.25;0.82;;;;;;;14.82;61.18;99009.44;4870658;28;101169;-89
2021/05/17 04:55:28;;;;;;;4.97;0.75;;;;;;;15.02;60.60;99003.56;4864664;28;97459;-87
2021/05/17 04:57:53;;;;;;;1.30;0.82;;;;;;;15.21;59.92;99004.84;4864561;28;97339;-87
2021/05/17 05:00:19;;;;;;;3.45;1.00;;;;;;;15.09;59.79;99002.13;4896432;28;98242;-89
2021/05/17 05:02:45;;;;;;;1.30;0.60;;;;;;;14.94;59.95;99004.09;4880163;28;96889;-88
2021/05/17 05:05:11;;;;;;;2.67;0.77;;;;;;;14.80;59.71;98993.69;4868817;28;96721;-89
2021/05/17 05:07:37;;;;;;;1.85;0.80;;;;;;;14.70;60.29;99000.59;4861544;28;96807;-89
2021/05/17 05:10:05;;;;;;;4.20;1.10;;;;;;;14.78;60.83;98997.41;4877982;28;98448;-89
2021/05/17 05:12:31;;;;;;;3.60;0.88;;;;;;;14.94;60.77;98996.16;4861010;28;100379;-85
2021/05/17 05:14:56;;;;;;;2.30;0.80;;;;;;;15.02;60.23;98990.34;4853474;28;96726;-87
2021/05/17 05:17:22;;;;;;;1.20;0.60;;;;;;;15.15;59.67;98998.19;4866558;28;96627;-89
2021/05/17 05:19:47;;;;;;;2.20;1.00;;;;;;;15.26;59.05;99006.19;4865297;28;100096;-88
2021/05/17 05:22:13;;;;;;;4.40;1.30;;;;;;;15.43;58.53;99001.44;4862315;28;98334;-89
2021/05/17 05:24:40;;;;;;;4.28;1.10;;;;;;;15.56;59.19;99007.47;4863545;28;96560;-89
2021/05/17 05:32:46;;;;;;;1.33;0.90;;;;;;;17.62;53.74;99006.13;4877651;28;101287;-87
2021/05/17 05:35:12;;;;;;;3.22;0.90;;;;;;;18.27;52.17;98993.53;4871158;28;96852;-88
2021/05/17 05:37:37;;;;;;;4.93;1.08;;;;;;;19.34;49.70;98993.78;4872079;28;96782;-87
2021/05/17 05:40:06;;;;;;;2.05;1.05;;;;;;;20.42;47.43;98997.09;4853372;28;101426;-90
2021/05/17 05:42:32;;;;;;;5.38;1.52;;;;;;;21.60;45.02;98994.38;4871544;28;97939;-84
2021/05/17 05:44:58;;;;;;;1.95;0.85;;;;;;;21.85;44.61;99000.75;4872433;28;96688;-90
2021/05/17 05:47:23;;;;;;;4.18;1.00;;;;;;;22.15;43.01;99001.28;4875802;28;97208;-90
2021/05/17 05:49:49;;;;;;;1.73;1.10;;;;;;;22.98;41.70;99000.69;4876524;28;101559;-90
2021/05/17 05:52:16;;;;;;;1.80;0.85;;;;;;;23.75;40.26;98985.22;4877230;28;101734;-89
2021/05/17 05:54:43;;;;;;;2.38;1.05;;;;;;;24.07;39.53;98992.38;4881683;28;97203;-88
2021/05/17 05:57:09;;;;;;;1.63;0.90;;;;;;;24.83;38.49;98977.53;4875099;28;96947;-90
2021/05/17 05:59:34;;;;;;;2.67;1.00;;;;;;;24.02;39.64;98986.69;4887241;28;98164;-85
2021/05/17 06:02:00;;;;;;;1.95;1.15;;;;;;;24.84;38.13;99007.88;4873331;28;102118;-89
2021/05/17 06:04:26;;;;;;;4.60;0.98;;;;;;;24.11;39.89;98992.84;4878182;28;96716;-89
2021/05/17 06:06:52;;;;;;;3.17;1.30;;;;;;;22.01;43.23;98989.34;4866405;28;96936;-89
2021/05/17 06:09:17;;;;;;;2.78;1.40;;;;;;;21.16;44.96;98980.97;4882470;28;98564;-88
2021/05/17 06:11:43;;;;;;;3.83;1.05;;;;;;;20.80;45.99;98986.28;4881738;28;100841;-87
2021/05/17 06:14:10;;;;;;;4.00;1.10;;;;;;;20.67;46.65;98987.63;4866652;28;97220;-88
2021/05/17 06:16:36;;;;;;;3.10;1.15;;;;;;;21.07;46.17;98978.38;4882165;28;96982;-85
2021/05/17 06:19:03;;;;;;;2.20;1.00;;;;;;;20.91;45.93;98985.22;4894450;28;98311;-85
2021/05/17 06:21:28;;;;;;;2.47;1.23;;;;;;;21.64;45.17;98981.56;4869352;28;96682;-81
2021/05/17 06:23:57;;;;;;;2.35;1.20;;;;;;;22.50;43.44;98976.25;4878962;28;96996;-80
2021/05/17 06:26:24;;;;;;;2.10;1.13;;;;;;;22.09;44.01;98970.69;4881098;28;96888;-81
2021/05/17 06:28:50;;;;;;;2.85;1.10;;;;;;;22.57;43.00;98979.13;4863863;28;101619;-80
2021/05/17 06:31:16;;;;;;;2.67;1.17;;;;;;;21.08;45.55;98972.88;4880127;28;101563;-81
2021/05/17 06:33:43;;;;;;;2.17;1.20;;;;;;;22.34;43.94;98978.84;4862485;28;97306;-81
2021/05/17 06:36:12;;;;;;;4.25;1.08;;;;;;;22.38;43.55;98970.38;4896781;28;96866;-81
2021/05/17 06:38:40;;;;;;;1.63;0.90;;;;;;;21.83;43.31;98970.69;4879771;28;102055;-80
2021/05/17 06:41:09;;;;;;;2.70;1.30;;;;;;;21.08;45.01;98978.22;4897194;28;97876;-81
2021/05/17 06:43:35;;;;;;;1.80;0.90;;;;;;;19.98;47.25;98980.84;4896911;28;96644;-81
2021/05/17 06:46:07;;;;;;;5.05;1.20;;;;;;;19.18;48.92;98962.44;4880172;28;96858;-80
2021/05/17 06:48:41;;;;;;;3.38;1.38;;;;;;;19.00;50.00;98962.28;4880773;28;101381;-81
2021/05/17 06:51:12;;;;;;;3.25;1.30;;;;;;;19.18;49.67;98961.59;4866449;28;101471;-80
2021/05/17 06:53:39;;;;;;;4.23;1.10;;;;;;;19.62;48.85;98964.66;4865063;28;96736;-79
2021/05/17 06:56:08;;;;;;;4.45;1.20;;;;;;;22.23;44.26;98966.63;4894061;28;96874;-81
2021/05/17 06:58:36;;;;;;;4.10;1.30;;;;;;;23.51;41.47;98959.25;4879749;28;101497;-81
2021/05/17 07:01:02;;;;;;;6.53;0.98;;;;;;;25.26;39.06;98975.28;4895773;28;101764;-81
2021/05/17 07:03:28;;;;;;;4.35;1.15;;;;;;;26.86;36.00;98983.91;4880494;28;97107;-81
2021/05/17 07:05:55;;;;;;;3.05;1.10;;;;;;;27.73;34.57;98990.19;4876550;28;97548;-80
2021/05/17 07:13:49;;;;;;;3.05;1.00;;;;;;;27.79;33.61;99011.00;4879745;28;97300;-81
2021/05/17 07:16:14;;;;;;;3.80;1.20;;;;;;;26.45;35.39;98999.72;4878314;28;96908;-81
2021/05/17 07:18:40;;;;;;;1.73;0.95;;;;;;;27.30;34.27;98987.50;4877384;28;101766;-81
2021/05/17 07:23:38;;;;;;;1.58;1.02;;;;;;;27.42;34.51;98968.97;4910378;28;97177;-81
2021/05/17 07:26:23;;;;;;;1.33;1.00;;;;;;;26.36;35.59;98963.16;4893002;28;97157;-81
2021/05/17 07:28:51;;;;;;;2.90;1.25;;;;;;;25.30;37.66;98959.63;4860930;28;101386;-81
2021/05/17 07:31:16;;;;;;;2.78;1.27;;;;;;;25.39;37.47;98958.53;4877998;28;98037;-81
2021/05/17 07:33:42;;;;;;;9.13;1.65;;;;;;;24.52;38.44;98971.31;4876979;28;97297;-80
2021/05/17 07:36:08;;;;;;;3.08;0.98;;;;;;;24.49;38.29;98972.47;4893917;28;97369;-80
2021/05/17 07:38:52;;;;;;;12.90;2.72;;;;;;;23.50;38.76;98976.31;4893728;28;97998;-79
2021/05/17 07:41:19;;;;;;;7.07;1.42;;;;;;;23.22;40.04;98976.66;4880229;28;101901;-79
2021/05/17 07:43:45;;;;;;;4.63;1.23;;;;;;;22.82;40.33;98996.09;4863361;28;96649;-79
2021/05/17 07:46:11;;;;;;;7.07;1.50;;;;;;;22.88;40.33;98995.44;4878889;28;96768;-80
2021/05/17 07:49:03;;;;;;;14.85;2.03;;;;;;;22.91;40.75;98997.78;4879475;28;97994;-80
2021/05/17 07:51:22;;;;;;;6.00;1.20;;;;;;;23.85;38.93;98985.03;4882047;28;101011;-79
2021/05/17 07:53:48;;;;;;;6.55;1.50;;;;;;;24.32;38.82;98989.63;4894800;28;96636;-79
2021/05/17 07:56:15;;;;;;;4.63;1.20;;;;;;;24.58;38.36;98990.25;4879774;28;96979;-79
2021/05/17 07:58:40;;;;;;;3.22;1.30;;;;;;;24.60;39.04;98985.50;4864318;28;101769;-79
2021/05/17 08:01:06;;;;;;;4.20;1.40;;;;;;;24.46;38.26;98985.41;4879614;28;101740;-80
2021/05/17 08:03:31;;;;;;;3.17;0.90;;;;;;;24.52;38.61;98995.44;4896101;28;97036;-79
2021/05/17 08:05:58;;;;;;;3.28;1.08;;;;;;;24.00;39.04;99002.09;4879642;28;97190;-79
2021/05/17 08:08:23;;;;;;;2.92;1.42;;;;;;;23.55;39.69;98998.09;4880251;28;98545;-86
2021/05/17 08:10:49;;;;;;;2.05;1.00;;;;;;;23.41;40.88;99001.41;4879734;28;101329;-84
2021/05/17 08:13:15;;;;;;;5.10;1.38;;;;;;;23.25;41.27;99008.44;4861136;28;97020;-86
2021/05/17 08:15:41;;;;;;;2.10;1.13;;;;;;;22.95;40.71;99009.91;4862055;28;97165;-82
2021/05/17 08:18:07;;;;;;;2.85;1.10;;;;;;;22.53;41.17;98997.31;4861093;28;101124;-84
2021/05/17 08:20:33;;;;;;;2.15;1.13;;;;;;;21.94;42.14;98999.00;4882155;28;100742;-84
2021/05/17 08:23:00;;;;;;;3.13;1.05;;;;;;;;;;4867179;28;96793;-79
2021/05/17 08:25:25;;;;;;;2.45;1.15;;;;;;;21.14;44.11;99004.28;4867449;28;101095;-79
2021/05/17 08:27:51;;;;;;;2.50;1.13;;;;;;;20.95;44.76;99001.78;4850176;28;99127;-80
2021/05/17 08:30:17;;;;;;;5.40;1.67;;;;;;;20.70;45.10;99003.31;4845152;28;101543;-80
2021/05/17 08:32:43;;;;;;;2.95;1.20;;;;;;;20.52;45.40;98998.75;4848410;28;97759;-78
2021/05/17 08:35:09;;;;;;;4.60;1.10;;;;;;;20.40;46.25;99002.59;4887533;28;97356;-80
2021/05/17 08:37:34;;;;;;;2.92;1.10;;;;;;;20.54;45.29;98995.97;4888896;28;97977;-78
2021/05/17 08:40:00;;;;;;;3.22;1.08;;;;;;;20.51;44.40;99006.91;4850331;28;98046;-78
2021/05/17 08:42:27;;;;;;;2.03;0.90;;;;;;;20.26;45.01;98993.22;4848757;28;98110;-79
2021/05/17 08:44:53;;;;;;;3.30;0.82;;;;;;;20.39;45.12;98989.38;4855464;28;96933;-80
2021/05/17 08:47:19;;;;;;;2.85;0.80;;;;;;;20.53;45.39;98984.44;4852993;28;101251;-79
2021/05/17 08:49:45;;;;;;;3.55;0.85;;;;;;;20.50;45.38;98991.88;4861493;28;98698;-79
2021/05/17 08:52:11;;;;;;;3.67;0.90;;;;;;;20.54;44.45;98987.97;4837491;28;97441;-80
2021/05/17 08:54:37;;;;;;;2.78;1.13;;;;;;;20.08;45.57;98990.50;4857097;28;97499;-79
2021/05/17 08:57:03;;;;;;;2.10;1.00;;;;;;;20.16;45.66;98987.13;4847497;28;100998;-79
2021/05/17 08:59:29;;;;;;;3.28;0.90;;;;;;;20.10;45.71;98993.88;4857075;28;98085;-82
2021/05/17 09:01:54;;;;;;;11.18;2.45;;;;;;;20.01;46.21;98989.41;4875033;28;97408;-80
2021/05/17 09:04:20;;;;;;;7.68;1.20;;;;;;;20.19;45.99;98991.28;4876783;28;96827;-80
2021/05/17 09:06:48;;;;;;;2.17;0.90;;;;;;;20.54;45.01;98995.97;4841936;28;100859;-80
2021/05/17 09:09:24;;;;;;;11.77;1.85;;;;;;;20.44;45.65;98987.97;4860222;28;101396;-80
2021/05/17 09:11:51;;;;;;;4.20;1.73;;;;;;;20.52;45.27;98998.75;4875679;28;97110;-81
2021/05/17 09:14:17;;;;;;;4.90;1.30;;;;;;;20.67;44.89;98993.78;4860068;28;97300;-81
2021/05/17 09:16:49;;;;;;;4.95;1.20;;;;;;;20.79;44.59;99000.56;4844872;28;101754;-81
2021/05/17 09:19:16;;;;;;;3.47;1.25;;;;;;;20.90;44.56;98994.22;4860832;28;101495;-81
2021/05/17 09:22:04;;;;;;;2.78;1.13;;;;;;;21.20;44.20;99002.84;4860163;28;97587;-81
2021/05/17 09:24:43;;;;;;;5.97;1.50;;;;;;;21.32;44.09;99000.78;4874213;28;98416;-81
2021/05/17 09:27:11;;;;;;;5.38;1.92;;;;;;;21.56;43.69;99003.72;4895808;28;99325;-80
2021/05/17 09:29:43;;;;;;;14.85;2.28;;;;;;;21.69;43.45;99008.66;4874691;28;101145;-80
2021/05/17 09:32:12;;;;;;;5.10;1.48;;;;;;;21.59;43.72;99008.75;4885656;28;96891;-81
2021/05/17 09:34:38;;;;;;;2.85;1.10;;;;;;;21.56;43.80;99010.88;4903749;28;97393;-80
2021/05/17 09:37:11;;;;;;;4.28;1.10;;;;;;;21.31;44.36;99005.28;4893046;28;98067;-80
2021/05/17 09:39:46;;;;;;;3.53;1.40;;;;;;;21.23;44.95;98998.06;4887558;28;98146;-82
2021/05/17 09:42:11;;;;;;;4.15;1.40;;;;;;;21.21;44.57;99005.38;4879937;28;96716;-79
2021/05/17 09:44:40;;;;;;;4.25;1.35;;;;;;;20.97;45.32;99005.97;4876211;28;97783;-80
2021/05/17 09:47:08;;;;;;;5.20;1.63;;;;;;;20.78;45.25;98990.91;4894779;28;101597;-79
2021/05/17 09:49:55;;;;;;;9.13;1.77;;;;;;;20.60;45.71;98992.72;4876130;28;101132;-83
2021/05/17 09:52:26;;;;;;;2.85;1.00;;;;;;;20.50;45.11;98998.03;4874742;28;97764;-83
2021/05/17 09:54:55;;;;;;;1.45;0.82;;;;;;;20.54;45.46;98998.63;4879057;28;97002;-82
2021/05/17 09:57:26;;;;;;;5.50;1.20;;;;;;;20.72;45.59;98993.34;4860277;28;101487;-82
2021/05/17 09:59:54;;;;;;;3.13;1.30;;;;;;;20.72;45.44;98993.34;4854158;28;101896;-82
2021/05/17 10:02:32;;;;;;;2.78;1.23;;;;;;;20.83;44.44;98989.63;4879745;28;97096;-83
2021/05/17 10:05:09;;;;;;;5.63;1.63;;;;;;;20.76;44.04;98979.53;4894519;28;96827;-84
2021/05/17 10:07:34;;;;;;;4.25;1.88;;;;;;;20.92;45.44;98986.06;4879982;28;97182;-82
2021/05/17 10:10:00;;;;;;;4.13;1.85;;;;;;;21.09;45.44;98979.91;4879432;28;100969;-82
2021/05/17 10:12:27;;;;;;;6.15;1.70;;;;;;;21.25;45.04;98993.38;4871513;28;96708;-80
2021/05/17 10:14:52;;;;;;;7.72;2.17;;;;;;;21.28;46.36;98991.41;4859810;28;96842;-76
2021/05/17 10:17:18;;;;;;;7.70;1.40;;;;;;;21.34;45.33;98978.28;4861128;28;101489;-84
2021/05/17 10:19:44;;;;;;;4.75;1.25;;;;;;;21.41;46.04;98989.22;4897001;28;96991;-83
2021/05/17 10:22:10;;;;;;;4.50;1.20;;;;;;;21.28;46.12;98986.06;4863846;28;97247;-83
2021/05/17 10:24:35;;;;;;;3.88;1.42;;;;;;;21.21;46.04;98985.84;4879300;28;97145;-83
2021/05/17 10:27:02;;;;;;;2.90;1.42;;;;;;;21.07;46.00;98994.38;4895346;28;98443;-84
2021/05/17 10:29:33;;;;;;;4.95;1.98;;;;;;;21.06;46.73;98990.03;4864100;28;99774;-83
2021/05/17 10:32:00;;;;;;;3.75;1.70;;;;;;;21.00;47.36;98988.78;4863789;28;96921;-84
2021/05/17 10:34:26;;;;;;;3.90;1.58;;;;;;;20.98;47.42;98986.28;4896604;28;97030;-84
2021/05/17 10:36:53;;;;;;;4.88;1.50;;;;;;;20.94;47.22;98992.06;4879336;28;100318;-83
2021/05/17 10:39:24;;;;;;;3.45;1.75;;;;;;;20.87;47.40;98988.34;4895789;28;98152;-83
2021/05/17 10:42:22;;;;;;;3.13;1.67;;;;;;;20.58;46.79;98994.66;4894860;28;96851;-82
2021/05/17 10:48:17;;;;;;;2.78;1.40;;;;;;;20.56;47.36;98996.63;4897675;28;99206;-82
2021/05/17 10:50:43;;;;;;;;;;;;;;;20.44;47.61;98995.97;4881052;28;101772;-82
2021/05/17 10:53:41;;;;;;;3.88;1.45;;;;;;;20.60;47.22;98997.19;4880213;28;96945;-83
2021/05/17 10:56:11;;;;;;;3.85;1.23;;;;;;;20.53;47.29;98994.28;4881202;28;96618;-83
2021/05/17 11:02:01;;;;;;;7.20;1.70;;;;;;;20.18;48.46;99003.78;4880354;28;101448;-80
2021/05/17 11:04:33;;;;;;;3.60;1.50;;;;;;;20.39;48.31;99005.38;4880993;28;96862;-79
2021/05/17 11:07:14;;;;;;;4.47;1.15;;;;;;;20.39;48.36;98992.91;4863987;28;96899;-81
2021/05/17 11:09:50;;;;;;;7.25;2.33;;;;;;;20.41;48.71;99008.75;4912724;28;98016;-81
2021/05/17 11:12:28;;;;;;;7.40;2.42;;;;;;;20.38;48.04;98998.38;4871015;28;100433;-80
2021/05/17 11:15:18;;;;;;;2.03;1.80;;;;;;;20.14;47.41;98999.72;4895230;28;96852;-77
2021/05/17 11:18:02;;;;;;;2.67;1.30;;;;;;;20.09;47.66;99004.66;4876577;28;97266;-79
2021/05/17 11:20:40;;;;;;;4.32;1.70;;;;;;;20.02;47.87;99001.72;4879573;28;101218;-80
2021/05/17 11:23:19;;;;;;;6.20;1.60;;;;;;;20.05;47.67;98997.94;4875896;28;99802;-82
2021/05/17 11:26:01;;;;;;;3.30;1.55;;;;;;;20.13;47.26;99003.38;4858030;28;96917;-82
2021/05/17 11:31:30;;;;;;;8.13;1.60;;;;;;;19.85;46.91;98997.16;4881660;28;101451;-83
2021/05/17 11:34:02;;;;;;;5.93;1.55;;;;;;;19.89;47.47;98995.88;4874143;28;101732;-82
2021/05/17 11:36:31;;;;;;;3.03;1.15;;;;;;;19.88;47.42;98997.69;4840293;28;97847;-84
2021/05/17 11:39:09;;;;;;;3.38;1.58;;;;;;;19.94;47.77;99006.94;4885121;28;97382;-83
2021/05/17 11:41:38;;;;;;;5.85;1.65;;;;;;;19.90;48.40;99001.06;4854157;28;101798;-82
2021/05/17 11:44:06;;;;;;;4.13;1.63;;;;;;;20.09;47.90;99012.63;4857088;28;101508;-84
2021/05/17 11:46:41;;;;;;;3.80;1.60;;;;;;;20.15;47.80;99008.56;4852987;28;96714;-82
2021/05/17 11:49:11;;;;;;;3.78;1.70;;;;;;;20.20;46.89;99004.47;4838812;28;97167;-81
2021/05/17 11:51:37;;;;;;;4.78;1.58;;;;;;;20.19;46.94;99010.81;4839797;28;101556;-82
2021/05/17 11:54:03;;;;;;;5.60;1.40;;;;;;;20.26;46.36;99011.88;4859855;28;100976;-82
2021/05/17 11:56:40;;;;;;;3.25;1.42;;;;;;;20.29;45.59;99008.94;4861210;28;97259;-84
2021/05/17 11:59:07;;;;;;;3.55;1.55;;;;;;;20.29;46.04;99008.94;4856634;28;97243;-81
2021/05/17 12:01:33;;;;;;;6.82;1.55;;;;;;;20.31;46.59;99016.78;4866206;28;97920;-82
2021/05/17 12:04:25;;;;;;;2.85;1.20;;;;;;;20.18;46.25;99016.25;4858390;28;97648;-82
2021/05/17 12:06:58;;;;;;;3.80;1.52;;;;;;;20.09;46.38;99015.31;4879084;28;96711;-81
2021/05/17 12:09:44;;;;;;;4.32;1.40;;;;;;;20.12;46.89;99010.53;4839226;28;96821;-82
2021/05/17 12:12:20;;;;;;;3.92;1.45;;;;;;;20.20;47.26;99011.63;4859332;28;101352;-81
2021/05/17 12:14:48;;;;;;;5.32;1.70;;;;;;;20.18;47.28;99011.75;4859837;28;96822;-81
2021/05/17 12:17:19;;;;;;;6.60;1.90;;;;;;;19.97;47.89;99013.78;4866942;28;97316;-83
2021/05/17 12:19:46;;;;;;;5.20;1.52;;;;;;;19.98;47.82;99020.78;4858018;28;97126;-83
2021/05/17 12:22:13;;;;;;;3.17;1.30;;;;;;;19.90;46.58;99011.72;4890074;28;98472;-83
2021/05/17 12:24:39;;;;;;;4.20;1.60;;;;;;;19.91;46.95;99012.53;4883908;28;101353;-83
2021/05/17 12:27:09;;;;;;;2.88;1.13;;;;;;;19.95;47.09;99015.75;4885827;28;96696;-83
2021/05/17 12:30:10;;;;;;;5.00;1.42;;;;;;;20.10;46.71;99015.16;4866007;28;96915;-82
2021/05/17 12:32:38;;;;;;;4.88;1.40;;;;;;;20.10;46.31;99015.16;4848675;28;101189;-83
2021/05/17 12:35:12;;;;;;;5.00;1.42;;;;;;;20.26;46.88;99014.53;4865656;28;98339;-84
2021/05/17 12:37:39;;;;;;;3.22;1.58;;;;;;;20.30;47.04;99005.28;4866980;28;98135;-83
2021/05/17 12:40:14;;;;;;;2.67;1.10;;;;;;;20.28;47.16;99007.25;4876905;28;97302;-85
2021/05/17 12:42:41;;;;;;;2.65;1.27;;;;;;;20.30;46.65;99015.09;4885397;28;101856;-78
2021/05/17 12:45:13;;;;;;;3.08;1.23;;;;;;;20.41;46.30;99012.25;4865267;28;97970;-76
2021/05/17 12:47:40;;;;;;;3.67;1.50;;;;;;;20.41;46.66;99011.41;4848259;28;98210;-79
2021/05/17 12:50:25;;;;;;;5.28;1.58;;;;;;;20.35;45.14;99005.66;4861475;28;96890;-82
2021/05/17 12:53:11;;;;;;;3.75;1.40;;;;;;;20.44;45.16;99003.97;4858506;28;101218;-82
2021/05/17 12:55:45;;;;;;;2.25;1.23;;;;;;;20.67;44.64;99006.28;4859352;28;99962;-83
2021/05/17 12:58:12;;;;;;;3.55;1.35;;;;;;;20.74;44.49;99000.22;4859694;28;96983;-82
2021/05/17 13:00:48;;;;;;;3.42;1.52;;;;;;;20.90;44.26;98998.72;4844526;28;96890;-83
2021/05/17 13:03:20;;;;;;;5.70;1.80;;;;;;;20.95;45.18;98999.94;4859770;28;98403;-82
2021/05/17 13:05:49;;;;;;;;;;;;;;;20.95;45.15;99001.78;4860351;28;101503;-83
2021/05/17 13:08:15;;;;;;;5.88;1.95;;;;;;;21.10;45.46;98994.91;4843610;28;96695;-83
2021/05/17 13:11:01;;;;;;;6.38;1.92;;;;;;;21.20;44.59;98997.50;4860139;28;96765;-83
2021/05/17 13:13:45;;;;;;;5.43;1.50;;;;;;;21.29;45.08;99001.09;4859843;28;101647;-83
2021/05/17 13:16:28;;;;;;;1.95;1.20;;;;;;;21.21;43.78;99000.03;4859189;28;101219;-83
2021/05/17 13:19:33;;;;;;;2.70;1.45;;;;;;;21.13;43.57;98999.13;4859636;28;96806;-83
2021/05/17 13:30:51;;;;;;;6.80;1.80;;;;;;;21.09;44.91;98998.59;4892998;28;96618;-82
2021/05/17 13:33:43;;;;;;;3.17;1.38;;;;;;;21.01;45.04;98999.34;4860118;28;96976;-82
2021/05/17 13:36:14;;;;;;;5.20;1.67;;;;;;;21.06;44.54;99001.56;4874211;28;98442;-82
2021/05/17 13:38:52;;;;;;;6.75;1.40;;;;;;;21.14;45.15;98998.94;4859993;28;101374;-82
2021/05/17 13:41:19;;;;;;;4.88;1.50;;;;;;;21.01;44.87;98994.00;4859393;28;96751;-82
2021/05/17 13:43:45;;;;;;;3.83;1.30;;;;;;;21.16;44.50;98994.31;4876093;28;97145;-82
2021/05/17 13:46:11;;;;;;;3.65;1.08;;;;;;;21.27;44.54;98998.59;4864612;28;100869;-82
2021/05/17 13:48:51;;;;;;;4.15;1.45;;;;;;;21.19;43.92;98990.50;4897496;28;97920;-82
2021/05/17 13:51:19;;;;;;;4.30;1.60;;;;;;;21.23;43.55;98991.84;4883204;28;96610;-82
2021/05/17 13:53:46;;;;;;;2.90;1.40;;;;;;;21.16;43.69;98991.63;4882257;28;96948;-82
2021/05/17 13:56:11;;;;;;;2.28;1.33;;;;;;;20.89;43.23;98976.53;4865677;28;100725;-82
2021/05/17 13:58:38;;;;;;;4.88;1.42;;;;;;;21.06;42.75;98977.56;4883621;28;97063;-82
2021/05/17 14:01:04;;;;;;;2.42;1.00;;;;;;;20.91;43.29;98982.53;4882103;28;96798;-82
2021/05/17 14:03:30;;;;;;;5.05;1.20;;;;;;;20.88;43.30;98982.84;4882111;28;96860;-82
2021/05/17 14:05:55;;;;;;;1.92;1.15;;;;;;;20.69;44.40;98982.97;4865657;28;101768;-82
2021/05/17 14:08:21;;;;;;;5.97;1.15;;;;;;;20.84;44.61;98981.47;4864698;28;100510;-82
2021/05/17 14:10:46;;;;;;;4.20;1.30;;;;;;;20.83;44.14;98992.28;4880743;28;97285;-82
2021/05/17 14:13:12;;;;;;;3.47;1.08;;;;;;;20.84;45.76;98992.16;4880945;28;96916;-82
2021/05/17 14:15:39;;;;;;;3.90;1.50;;;;;;;20.66;47.20;98991.28;4881397;28;101696;-82
2021/05/17 14:18:05;;;;;;;4.20;1.67;;;;;;;20.71;46.59;98995.19;4880860;28;99973;-82
2021/05/17 14:20:32;;;;;;;4.43;1.50;;;;;;;20.66;47.05;98991.28;4881148;28;96704;-81
2021/05/17 14:22:57;;;;;;;5.53;1.55;;;;;;;20.49;47.14;98995.53;4897633;28;97228;-82
2021/05/17 14:25:23;;;;;;;5.53;1.55;;;;;;;20.58;47.30;99000.84;4864148;28;101409;-82